Time;durP1;ratioP1;P1;durP2;ratioP2;P2;SDS_P1;SDS_P2;PMS_P1;PMS_P2;Temp;Humidity;BMP_temperature;BMP_pressure;BME280_temperature;BME280_humidity;BME280_pressure;Samples;Min_cycle;Max_cycle;Signal;HPM_P1;HPM_P2
2022/12/04 00:02:09;;;;;;;48.27;24.70;;;2.70;99.90;;;;;;5033403;28;20476;-82
2022/12/04 00:04:36;;;;;;;42.80;23.10;;;2.80;99.90;;;;;;5033915;28;20456;-84
2022/12/04 00:07:03;;;;;;;44.83;23.77;;;2.70;99.90;;;;;;5033656;28;20460;-82
2022/12/04 00:09:29;;;;;;;43.57;22.37;;;2.70;99.90;;;;;;5029848;28;20488;-79
2022/12/04 00:11:56;;;;;;;42.87;23.17;;;2.60;99.90;;;;;;5033133;28;20453;-81
2022/12/04 00:14:25;;;;;;;48.90;24.17;;;2.60;99.90;;;;;;5033021;28;20791;-82
2022/12/04 00:16:51;;;;;;;43.33;23.77;;;2.60;99.90;;;;;;5033046;28;20455;-82
2022/12/04 00:19:18;;;;;;;42.83;24.33;;;2.70;99.90;;;;;;5032801;28;20835;-81
2022/12/04 00:21:45;;;;;;;50.87;24.50;;;2.70;99.90;;;;;;5033216;28;20451;-83
2022/12/04 00:24:12;;;;;;;44.57;23.63;;;2.50;99.90;;;;;;5021651;28;20537;-82
2022/12/04 00:26:39;;;;;;;44.47;24.03;;;2.60;99.90;;;;;;5013379;28;20456;-80
2022/12/04 00:29:06;;;;;;;45.80;24.67;;;2.60;99.90;;;;;;5012846;28;20496;-82
2022/12/04 00:31:34;;;;;;;51.40;25.80;;;2.60;99.90;;;;;;5012951;28;20434;-82
2022/12/04 00:34:03;;;;;;;48.33;25.17;;;2.50;99.90;;;;;;5013646;28;20465;-82
2022/12/04 00:36:30;;;;;;;50.67;25.50;;;2.60;99.90;;;;;;5013655;28;20453;-78
2022/12/04 00:38:59;;;;;;;49.60;25.60;;;2.70;99.90;;;;;;5013420;28;20638;-80
2022/12/04 00:41:29;;;;;;;58.63;36.43;;;2.70;99.90;;;;;;5012410;28;20784;-79
2022/12/04 00:43:57;;;;;;;57.83;29.83;;;2.60;99.90;;;;;;5013293;28;20967;-82
2022/12/04 00:46:23;;;;;;;46.27;25.07;;;2.50;99.90;;;;;;5013225;28;20468;-82
2022/12/04 00:48:53;;;;;;;52.30;26.73;;;2.60;99.90;;;;;;5013146;28;20489;-80
2022/12/04 00:51:22;;;;;;;56.20;26.20;;;2.30;99.90;;;;;;5014022;28;20444;-81
2022/12/04 00:53:50;;;;;;;47.83;25.00;;;2.20;99.90;;;;;;5012958;28;20450;-81
2022/12/04 00:56:19;;;;;;;50.40;26.37;;;2.30;99.90;;;;;;5013376;28;20936;-80
2022/12/04 00:58:47;;;;;;;54.67;27.03;;;2.20;99.90;;;;;;5013178;28;20941;-82
2022/12/04 01:01:17;;;;;;;51.97;25.80;;;1.90;99.90;;;;;;5013235;28;20425;-83
2022/12/04 01:03:44;;;;;;;51.00;26.37;;;1.80;99.90;;;;;;5013030;28;20449;-83
2022/12/04 01:06:20;;;;;;;49.70;26.27;;;2.00;99.90;;;;;;5013196;28;20457;-84
2022/12/04 01:08:49;;;;;;;48.97;24.63;;;1.70;99.90;;;;;;5013177;28;20824;-81
2022/12/04 01:11:16;;;;;;;50.60;26.10;;;1.80;99.90;;;;;;5013920;28;20437;-84
2022/12/04 01:13:43;;;;;;;55.33;27.13;;;1.70;99.90;;;;;;5013331;28;20448;-82
2022/12/04 01:16:16;;;;;;;49.43;25.90;;;1.70;99.90;;;;;;5013565;28;20453;-82
2022/12/04 01:18:44;;;;;;;51.50;26.87;;;1.80;99.90;;;;;;5014113;28;20444;-83
2022/12/04 01:21:11;;;;;;;54.30;26.20;;;1.90;99.90;;;;;;5013470;28;20816;-84
2022/12/04 01:23:40;;;;;;;49.97;26.27;;;1.90;99.90;;;;;;5013555;28;20444;-80
2022/12/04 01:26:08;;;;;;;50.83;25.80;;;1.90;99.90;;;;;;5013401;28;20433;-80
2022/12/04 01:28:36;;;;;;;51.27;25.43;;;1.80;99.90;;;;;;5024509;28;20432;-82
2022/12/04 01:31:05;;;;;;;46.63;24.13;;;1.80;99.90;;;;;;5034311;28;20498;-84
2022/12/04 01:33:33;;;;;;;51.43;26.97;;;2.00;99.90;;;;;;5036670;28;20467;-80
2022/12/04 01:36:03;;;;;;;48.10;24.97;;;2.00;99.90;;;;;;5036606;28;20449;-83
2022/12/04 01:38:31;;;;;;;52.70;26.27;;;2.00;99.90;;;;;;5036694;28;20444;-84
2022/12/04 01:40:59;;;;;;;50.60;26.47;;;2.00;99.90;;;;;;5037222;28;20452;-86
2022/12/04 01:43:28;;;;;;;55.17;36.97;;;2.00;99.90;;;;;;5035734;28;20438;-87
2022/12/04 01:46:02;;;;;;;51.40;28.93;;;2.10;99.90;;;;;;5036868;28;20194;-85
2022/12/04 01:48:32;;;;;;;49.20;25.67;;;2.00;99.90;;;;;;5036900;28;21006;-87
2022/12/04 01:51:05;;;;;;;48.00;26.30;;;2.10;99.90;;;;;;5036917;28;20491;-87
2022/12/04 01:53:34;;;;;;;49.40;26.10;;;2.10;99.90;;;;;;5036814;28;21085;-87
2022/12/04 01:56:04;;;;;;;46.97;25.67;;;2.00;99.90;;;;;;5036457;28;20449;-85
2022/12/04 01:58:36;;;;;;;55.97;27.63;;;1.90;99.90;;;;;;5036922;28;20436;-86
2022/12/04 02:01:05;;;;;;;53.43;26.43;;;2.00;99.90;;;;;;5037086;28;20433;-87
2022/12/04 02:03:33;;;;;;;53.33;28.20;;;1.70;99.90;;;;;;5035189;28;20464;-85
2022/12/04 02:06:00;;;;;;;51.93;27.47;;;1.70;99.90;;;;;;5036426;28;20467;-85
2022/12/04 02:08:30;;;;;;;59.50;27.87;;;1.80;99.90;;;;;;5036853;28;20452;-85
2022/12/04 02:11:11;;;;;;;58.13;27.93;;;1.80;99.90;;;;;;5035960;28;21013;-83
2022/12/04 02:13:45;;;;;;;70.18;41.13;;;1.80;99.90;;;;;;5035743;28;20446;-82
2022/12/04 02:16:19;;;;;;;68.60;31.20;;;1.60;99.90;;;;;;5036303;28;20201;-86
2022/12/04 02:18:57;;;;;;;60.03;30.17;;;1.60;99.90;;;;;;5036381;28;20931;-85
2022/12/04 02:21:31;;;;;;;58.93;29.37;;;1.60;99.90;;;;;;5016590;28;20441;-87
2022/12/04 02:24:21;;;;;;;62.27;29.70;;;1.50;99.90;;;;;;5029142;28;20452;-85
2022/12/04 02:26:56;;;;;;;60.50;29.07;;;1.60;99.90;;;;;;5035560;28;20456;-86
2022/12/04 02:29:34;;;;;;;64.20;29.47;;;1.50;99.90;;;;;;5035653;28;20493;-87
2022/12/04 02:32:07;;;;;;;61.07;28.47;;;1.40;99.90;;;;;;5035753;28;20440;-86
2022/12/04 02:34:41;;;;;;;58.77;28.67;;;1.30;99.90;;;;;;5032925;28;20997;-86
2022/12/04 02:37:12;;;;;;;55.17;27.23;;;1.40;99.90;;;;;;5025305;28;20444;-84
2022/12/04 02:39:42;;;;;;;51.70;27.20;;;1.50;99.90;;;;;;5033316;28;20452;-81
2022/12/04 02:42:14;;;;;;;63.40;28.47;;;1.40;99.90;;;;;;5014551;28;20449;-83
2022/12/04 02:44:47;;;;;;;63.43;29.30;;;1.30;99.90;;;;;;5029324;28;20448;-85
2022/12/04 02:47:19;;;;;;;58.57;27.63;;;1.20;99.90;;;;;;5023517;28;20449;-83
2022/12/04 02:49:50;;;;;;;64.63;29.07;;;1.10;99.90;;;;;;5034967;28;20995;-83
2022/12/04 02:52:22;;;;;;;61.03;30.43;;;1.20;99.90;;;;;;5035040;28;20443;-84
2022/12/04 02:54:54;;;;;;;66.70;30.53;;;1.30;99.90;;;;;;5034504;28;21136;-86
2022/12/04 02:57:25;;;;;;;59.13;28.17;;;1.40;99.90;;;;;;5035363;28;20832;-85
2022/12/04 02:59:57;;;;;;;60.10;28.27;;;1.20;99.90;;;;;;5035333;28;20782;-87
2022/12/04 03:02:29;;;;;;;63.40;28.67;;;1.10;99.90;;;;;;5035412;28;20449;-85
2022/12/04 03:04:57;;;;;;;66.03;30.03;;;1.00;99.90;;;;;;5035302;28;20441;-85
2022/12/04 03:07:30;;;;;;;59.27;29.13;;;1.10;99.90;;;;;;5035124;28;20848;-84
2022/12/04 03:10:02;;;;;;;61.67;30.33;;;1.10;99.90;;;;;;5034956;28;20495;-86
2022/12/04 03:12:36;;;;;;;68.87;28.97;;;1.00;99.90;;;;;;5034349;28;20805;-84
2022/12/04 03:15:08;;;;;;;68.23;29.20;;;1.00;99.90;;;;;;5022483;28;20449;-85
2022/12/04 03:17:40;;;;;;;67.07;29.43;;;0.90;99.90;;;;;;5020525;28;20852;-85
2022/12/04 03:20:11;;;;;;;67.20;28.33;;;0.90;99.90;;;;;;5034761;28;20445;-86
2022/12/04 03:22:41;;;;;;;60.33;29.13;;;0.90;99.90;;;;;;5034931;28;21021;-84
2022/12/04 03:25:09;;;;;;;62.07;28.27;;;0.80;99.90;;;;;;5034189;28;20943;-83
2022/12/04 03:27:46;;;;;;;62.20;29.27;;;1.00;99.90;;;;;;5034561;28;20455;-84
2022/12/04 03:30:17;;;;;;;64.70;28.40;;;1.00;99.90;;;;;;5022799;28;20485;-84
2022/12/04 03:32:50;;;;;;;63.30;29.93;;;1.00;99.90;;;;;;5031987;28;20456;-83
2022/12/04 03:35:21;;;;;;;60.10;28.07;;;1.10;99.90;;;;;;5034140;28;20460;-84
2022/12/04 03:37:55;;;;;;;65.43;27.87;;;1.10;99.90;;;;;;5033758;28;20437;-83
2022/12/04 03:40:26;;;;;;;72.10;28.80;;;1.20;99.90;;;;;;5033873;28;20454;-83
2022/12/04 03:42:59;;;;;;;63.53;28.00;;;1.30;99.90;;;;;;5034189;28;20452;-82
2022/12/04 03:45:33;;;;;;;60.90;28.30;;;1.30;99.90;;;;;;5034136;28;20451;-86
2022/12/04 03:48:05;;;;;;;67.03;29.33;;;1.40;99.90;;;;;;5033606;28;20444;-84
2022/12/04 03:50:37;;;;;;;68.07;29.47;;;1.50;99.90;;;;;;5033447;28;20493;-82
2022/12/04 03:53:12;;;;;;;63.57;29.50;;;1.50;99.90;;;;;;5034119;28;20463;-82
2022/12/04 03:55:45;;;;;;;64.87;29.87;;;1.50;99.90;;;;;;5034183;28;20471;-82
2022/12/04 03:58:18;;;;;;;67.03;27.40;;;1.40;99.90;;;;;;5034156;28;20425;-82
2022/12/04 04:00:50;;;;;;;60.77;28.43;;;1.30;99.90;;;;;;5033830;28;20810;-80
2022/12/04 04:03:22;;;;;;;61.03;28.03;;;1.40;99.90;;;;;;5033701;28;20463;-79
2022/12/04 04:05:53;;;;;;;65.00;27.70;;;1.40;99.90;;;;;;5033294;28;20978;-79
2022/12/04 04:08:29;;;;;;;62.13;27.47;;;1.40;99.90;;;;;;5033408;28;20818;-78
2022/12/04 04:11:00;;;;;;;57.87;27.03;;;1.50;99.90;;;;;;5033769;28;20515;-78
2022/12/04 04:24:49;;;;;;;55.37;26.13;;;2.00;99.90;;;;;;5038487;28;20424;-82
2022/12/04 04:27:17;;;;;;;61.40;27.50;;;1.70;99.90;;;;;;5039368;28;20440;-82
2022/12/04 04:29:45;;;;;;;59.03;27.60;;;1.90;99.90;;;;;;5035184;28;20445;-84
2022/12/04 04:32:18;;;;;;;57.97;27.33;;;1.90;99.90;;;;;;5034722;28;21010;-86
2022/12/04 04:34:54;;;;;;;59.97;26.63;;;2.00;99.90;;;;;;5035899;28;20437;-83
2022/12/04 04:37:29;;;;;;;61.27;26.70;;;2.00;99.90;;;;;;5034895;28;20441;-84
2022/12/04 04:40:04;;;;;;;59.13;27.90;;;2.10;99.90;;;;;;5035776;28;20467;-80
2022/12/04 04:42:37;;;;;;;55.73;26.40;;;2.30;99.90;;;;;;5035652;28;20538;-83
2022/12/04 04:45:12;;;;;;;57.90;27.57;;;2.30;99.90;;;;;;5033756;28;20448;-85
2022/12/04 04:47:44;;;;;;;53.50;27.00;;;2.40;99.90;;;;;;5033933;28;20435;-83
2022/12/04 04:50:15;;;;;;;63.60;27.83;;;2.50;99.90;;;;;;5033802;28;20476;-84
2022/12/04 04:52:48;;;;;;;53.13;27.17;;;2.50;99.90;;;;;;5034300;28;20444;-82
2022/12/04 04:55:22;;;;;;;59.77;27.17;;;2.20;99.90;;;;;;5034061;28;20428;-84
2022/12/04 04:57:49;;;;;;;54.20;26.33;;;2.20;99.90;;;;;;5033818;28;20463;-86
2022/12/04 05:00:23;;;;;;;52.10;25.50;;;2.40;99.90;;;;;;5033761;28;20952;-80
2022/12/04 05:02:51;;;;;;;53.83;26.63;;;2.50;99.90;;;;;;5033708;28;20471;-85
2022/12/04 05:05:18;;;;;;;51.83;25.77;;;2.60;99.90;;;;;;5033026;28;20435;-85
2022/12/04 05:07:46;;;;;;;56.60;27.73;;;2.50;99.90;;;;;;5037626;28;20955;-86
2022/12/04 05:10:13;;;;;;;55.83;27.97;;;2.30;99.90;;;;;;5037488;28;20484;-78
2022/12/04 05:12:42;;;;;;;53.87;25.97;;;2.20;99.90;;;;;;5037349;28;20447;-85
2022/12/04 05:15:10;;;;;;;54.27;26.93;;;2.10;99.90;;;;;;5037649;28;20448;-85
2022/12/04 05:17:37;;;;;;;51.43;26.57;;;2.20;99.90;;;;;;5037613;28;20437;-85
2022/12/04 05:20:10;;;;;;;50.20;24.47;;;2.40;99.90;;;;;;5037289;28;20432;-87
2022/12/04 05:22:37;;;;;;;58.83;26.40;;;2.40;99.90;;;;;;5037611;28;20444;-83
2022/12/04 05:25:05;;;;;;;47.83;24.80;;;2.20;99.90;;;;;;5037398;28;20440;-85
2022/12/04 05:27:33;;;;;;;49.77;25.03;;;2.20;99.90;;;;;;5037644;28;20447;-81
2022/12/04 05:30:01;;;;;;;57.43;27.73;;;2.20;99.90;;;;;;5036293;28;20432;-85
2022/12/04 05:32:29;;;;;;;53.47;26.03;;;2.30;99.90;;;;;;5037167;28;20444;-81
2022/12/04 05:34:58;;;;;;;52.90;26.17;;;2.30;99.90;;;;;;5036903;28;20439;-85
2022/12/04 05:37:27;;;;;;;52.33;26.97;;;2.30;99.90;;;;;;5037385;28;20452;-82
2022/12/04 05:39:59;;;;;;;52.70;25.73;;;2.40;99.90;;;;;;5037339;28;20448;-84
2022/12/04 05:42:26;;;;;;;48.77;26.53;;;2.40;99.90;;;;;;5037236;28;20452;-85
2022/12/04 05:44:53;;;;;;;55.30;26.93;;;2.30;99.90;;;;;;5037343;28;20452;-87
2022/12/04 05:47:20;;;;;;;51.33;25.50;;;2.30;99.90;;;;;;5037098;28;20448;-86
2022/12/04 05:49:48;;;;;;;51.40;25.53;;;2.40;99.90;;;;;;5036729;28;20433;-82
2022/12/04 05:52:16;;;;;;;57.03;26.73;;;2.40;99.90;;;;;;5037162;28;20858;-86
2022/12/04 05:54:45;;;;;;;54.33;24.80;;;2.30;99.90;;;;;;5037426;28;20476;-83
2022/12/04 05:57:13;;;;;;;51.50;26.33;;;2.20;99.90;;;;;;5036969;28;20439;-86
2022/12/04 05:59:41;;;;;;;50.00;26.07;;;2.20;99.90;;;;;;5036738;28;20444;-84
2022/12/04 06:02:09;;;;;;;55.10;26.07;;;2.10;99.90;;;;;;5036180;28;20464;-88
2022/12/04 06:04:37;;;;;;;50.73;25.87;;;2.00;99.90;;;;;;5036700;28;20456;-87
2022/12/04 06:07:05;;;;;;;53.33;26.53;;;2.10;99.90;;;;;;5036753;28;20456;-85
2022/12/04 06:09:35;;;;;;;50.90;25.00;;;2.00;99.90;;;;;;5035948;28;21015;-84
2022/12/04 06:12:05;;;;;;;55.60;25.57;;;1.90;99.90;;;;;;5036491;28;20857;-86
2022/12/04 06:14:32;;;;;;;49.57;25.77;;;1.90;99.90;;;;;;5036146;28;20461;-83
2022/12/04 06:16:59;;;;;;;55.73;26.23;;;1.90;99.90;;;;;;5022013;28;20449;-84
2022/12/04 06:19:27;;;;;;;52.97;24.73;;;2.00;99.90;;;;;;5034619;28;20448;-85
2022/12/04 06:21:54;;;;;;;49.53;25.53;;;2.00;99.90;;;;;;5036129;28;20464;-84
2022/12/04 06:24:22;;;;;;;52.43;26.20;;;2.00;99.90;;;;;;5035668;28;20802;-83
2022/12/04 06:26:50;;;;;;;49.13;26.03;;;1.90;99.90;;;;;;5035910;28;20456;-84
2022/12/04 06:29:19;;;;;;;52.63;25.60;;;2.10;99.90;;;;;;5035531;28;20935;-85
2022/12/04 06:31:46;;;;;;;53.77;27.50;;;2.20;99.90;;;;;;5035236;28;21002;-83
2022/12/04 06:34:12;;;;;;;48.53;25.47;;;2.20;99.90;;;;;;5021377;28;20459;-82
2022/12/04 06:36:39;;;;;;;51.80;25.03;;;2.10;99.90;;;;;;5035841;28;20452;-83
2022/12/04 06:39:06;;;;;;;49.77;25.40;;;2.20;99.90;;;;;;5035821;28;20440;-84
2022/12/04 06:41:33;;;;;;;51.30;26.33;;;2.30;99.90;;;;;;5035127;28;20936;-83
2022/12/04 06:44:01;;;;;;;53.80;27.50;;;2.30;99.90;;;;;;5024718;28;20512;-82
2022/12/04 06:46:33;;;;;;;49.03;24.53;;;2.20;99.90;;;;;;5018077;28;20451;-84
2022/12/04 06:49:01;;;;;;;47.90;24.73;;;2.10;99.90;;;;;;5035492;28;20457;-82
2022/12/04 06:51:30;;;;;;;51.00;26.90;;;2.10;99.90;;;;;;5034777;28;20484;-81
2022/12/04 06:53:57;;;;;;;53.80;26.87;;;2.10;99.90;;;;;;5034916;28;20487;-84
2022/12/04 06:56:27;;;;;;;50.63;25.63;;;2.20;99.90;;;;;;5035159;28;20445;-84
2022/12/04 06:58:56;;;;;;;55.10;26.67;;;2.30;99.90;;;;;;5034846;28;20460;-85
2022/12/04 07:01:25;;;;;;;46.73;24.93;;;2.30;99.90;;;;;;5034753;28;20455;-83
2022/12/04 07:03:54;;;;;;;45.20;25.30;;;2.40;99.90;;;;;;5034708;28;20463;-85
2022/12/04 07:06:23;;;;;;;52.37;25.80;;;2.50;99.90;;;;;;5034882;28;20452;-84
2022/12/04 07:08:52;;;;;;;49.50;25.77;;;2.40;99.90;;;;;;5034734;28;20437;-82
2022/12/04 07:11:20;;;;;;;52.97;26.43;;;2.60;99.90;;;;;;5034469;28;20480;-83
2022/12/04 07:13:47;;;;;;;50.33;26.53;;;2.60;99.90;;;;;;5034520;28;20452;-81
2022/12/04 07:16:17;;;;;;;49.67;26.57;;;2.40;99.90;;;;;;5034291;28;20455;-83
2022/12/04 07:18:45;;;;;;;47.77;24.77;;;2.20;99.90;;;;;;5033518;28;20461;-82
2022/12/04 07:21:17;;;;;;;47.73;25.90;;;2.20;99.90;;;;;;5025738;28;20457;-84
2022/12/04 07:23:45;;;;;;;53.27;26.80;;;2.30;99.90;;;;;;5014426;28;20438;-81
2022/12/04 07:26:13;;;;;;;42.70;22.63;;;2.40;99.90;;;;;;5021696;28;20448;-82
2022/12/04 07:28:46;;;;;;;50.27;25.17;;;2.50;99.90;;;;;;5034278;28;20784;-79
2022/12/04 07:31:15;;;;;;;50.00;25.53;;;2.40;99.90;;;;;;5033359;28;20480;-85
2022/12/04 07:33:43;;;;;;;44.73;24.83;;;2.20;99.90;;;;;;5033652;28;20478;-85
2022/12/04 07:36:15;;;;;;;48.17;25.10;;;2.40;99.90;;;;;;5022746;28;20441;-82
2022/12/04 07:38:42;;;;;;;50.67;25.13;;;2.50;99.90;;;;;;5021574;28;20452;-81
2022/12/04 07:41:11;;;;;;;49.10;26.00;;;2.30;99.90;;;;;;5034310;28;20822;-83
2022/12/04 07:43:38;;;;;;;49.10;25.90;;;2.30;99.90;;;;;;5014999;28;20456;-83
2022/12/04 07:46:06;;;;;;;51.73;26.00;;;2.40;99.90;;;;;;5026122;28;20867;-82
2022/12/04 07:48:34;;;;;;;46.03;26.10;;;2.30;99.90;;;;;;5033896;28;20449;-83
2022/12/04 07:51:05;;;;;;;48.77;25.20;;;2.30;99.90;;;;;;5023180;28;20488;-82
2022/12/04 07:53:34;;;;;;;47.87;26.23;;;2.40;99.90;;;;;;5030721;28;20479;-81
2022/12/04 07:56:01;;;;;;;49.00;26.60;;;2.30;99.90;;;;;;5033514;28;20955;-82
2022/12/04 07:58:28;;;;;;;59.80;38.42;;;2.20;99.90;;;;;;5031936;28;20427;-83
2022/12/04 08:00:55;;;;;;;49.93;29.27;;;2.40;99.90;;;;;;5033534;28;20210;-82
2022/12/04 08:03:23;;;;;;;49.03;26.20;;;2.40;99.90;;;;;;5033832;28;20457;-82
2022/12/04 08:05:50;;;;;;;48.63;25.90;;;2.40;99.90;;;;;;5033568;28;20456;-84
2022/12/04 08:08:17;;;;;;;49.73;26.10;;;2.30;99.90;;;;;;5021650;28;20440;-83
2022/12/04 08:10:46;;;;;;;48.83;27.13;;;2.40;99.90;;;;;;5033384;28;20947;-83
2022/12/04 08:13:13;;;;;;;49.33;24.63;;;2.40;99.90;;;;;;5021325;28;20456;-85
2022/12/04 08:15:40;;;;;;;49.73;25.20;;;2.40;99.90;;;;;;5031572;28;20444;-83
2022/12/04 08:18:06;;;;;;;50.90;26.40;;;2.70;99.90;;;;;;5033037;28;20452;-82
2022/12/04 08:20:33;;;;;;;47.13;26.10;;;2.50;99.90;;;;;;5031195;28;20433;-84
2022/12/04 08:23:00;;;;;;;53.40;27.43;;;2.50;99.90;;;;;;5027385;28;20455;-81
2022/12/04 08:25:27;;;;;;;51.00;26.20;;;2.70;99.90;;;;;;5033497;28;20447;-85
2022/12/04 08:27:55;;;;;;;55.50;26.27;;;2.80;99.90;;;;;;5026456;28;20858;-82
2022/12/04 08:30:22;;;;;;;52.07;27.17;;;3.00;99.90;;;;;;5027063;28;20823;-80
2022/12/04 08:32:49;;;;;;;47.10;26.13;;;3.00;99.90;;;;;;5033125;28;20498;-83
2022/12/04 08:35:16;;;;;;;50.70;26.90;;;2.80;99.90;;;;;;5032865;28;20444;-79
2022/12/04 08:37:44;;;;;;;49.73;27.50;;;2.70;99.90;;;;;;5032499;28;20457;-80
2022/12/04 08:40:12;;;;;;;49.60;26.90;;;2.70;99.90;;;;;;5032448;28;20444;-82
2022/12/04 08:42:39;;;;;;;51.50;28.30;;;2.60;99.90;;;;;;5032642;28;20966;-80
2022/12/04 08:45:08;;;;;;;51.40;27.90;;;2.50;99.90;;;;;;5032645;28;20453;-80
2022/12/04 08:47:36;;;;;;;49.63;25.60;;;2.60;99.90;;;;;;5019258;28;20433;-84
2022/12/04 08:50:03;;;;;;;53.60;27.10;;;2.70;99.90;;;;;;5033112;28;20448;-81
2022/12/04 08:52:31;;;;;;;46.80;26.43;;;2.60;99.90;;;;;;5032760;28;21119;-80
2022/12/04 08:54:58;;;;;;;54.23;25.93;;;2.70;99.90;;;;;;5027476;28;20476;-82
2022/12/04 08:57:25;;;;;;;54.03;28.50;;;2.70;99.90;;;;;;5028320;28;20888;-81
2022/12/04 08:59:51;;;;;;;50.37;26.83;;;2.70;99.90;;;;;;5032321;28;20452;-82
2022/12/04 09:02:19;;;;;;;50.33;26.77;;;2.60;99.90;;;;;;5032687;28;20440;-82
2022/12/04 09:04:47;;;;;;;50.17;26.80;;;2.70;99.90;;;;;;5029689;28;20448;-83
2022/12/04 09:07:14;;;;;;;51.43;26.83;;;2.60;99.90;;;;;;5032599;28;20464;-82
2022/12/04 09:09:41;;;;;;;46.93;26.40;;;2.50;99.90;;;;;;5028945;28;20460;-84
2022/12/04 09:12:08;;;;;;;47.63;27.67;;;2.50;99.90;;;;;;5028384;28;20480;-85
2022/12/04 09:14:35;;;;;;;48.43;27.13;;;2.60;99.90;;;;;;5033096;28;20449;-83
2022/12/04 09:17:02;;;;;;;51.37;27.63;;;2.80;99.90;;;;;;5033124;28;20445;-83
2022/12/04 09:19:30;;;;;;;50.70;27.70;;;3.00;99.90;;;;;;5033038;28;20453;-81
2022/12/04 09:21:57;;;;;;;49.97;27.70;;;2.80;99.90;;;;;;5032759;28;20450;-80
2022/12/04 09:24:24;;;;;;;49.10;27.43;;;2.90;99.90;;;;;;5032774;28;20447;-81
2022/12/04 09:26:51;;;;;;;47.43;25.83;;;3.00;99.90;;;;;;5018388;28;20455;-81
2022/12/04 09:29:18;;;;;;;46.93;26.57;;;3.30;99.90;;;;;;5032583;28;20819;-81
2022/12/04 09:31:46;;;;;;;48.23;27.67;;;3.30;99.90;;;;;;5032522;28;20490;-82
2022/12/04 09:34:13;;;;;;;47.63;27.17;;;3.10;99.90;;;;;;5032805;28;20528;-82
2022/12/04 09:36:41;;;;;;;50.83;27.83;;;3.20;99.90;;;;;;5015298;28;20948;-82
2022/12/04 09:39:08;;;;;;;49.07;27.77;;;3.30;99.90;;;;;;5012353;28;20452;-80
2022/12/04 09:42:02;;;;;;;49.33;28.00;;;3.20;99.90;;;;;;5024835;28;20456;-78
2022/12/04 09:44:35;;;;;;;47.73;27.70;;;3.40;99.90;;;;;;5032209;28;20444;-80
2022/12/04 09:47:04;;;;;;;51.60;28.50;;;3.20;99.90;;;;;;5031932;28;20864;-82
2022/12/04 09:49:38;;;;;;;47.57;26.80;;;2.90;99.90;;;;;;5024888;28;20449;-81
2022/12/04 09:52:11;;;;;;;53.47;27.60;;;3.00;99.90;;;;;;5028210;28;20500;-82
2022/12/04 09:54:42;;;;;;;54.73;26.67;;;2.60;99.90;;;;;;5035617;28;20499;-84
2022/12/04 09:57:15;;;;;;;52.67;29.53;;;2.70;99.90;;;;;;5021417;28;20449;-83
2022/12/04 09:59:42;;;;;;;51.50;29.20;;;2.70;99.90;;;;;;5036336;28;20437;-84
2022/12/04 10:02:26;;;;;;;50.87;28.73;;;2.90;99.90;;;;;;5024389;28;20834;-84
2022/12/04 10:04:53;;;;;;;54.37;30.87;;;2.80;99.90;;;;;;5033843;28;20946;-80
2022/12/04 10:07:26;;;;;;;56.60;30.43;;;2.70;99.90;;;;;;5035738;28;20450;-80
2022/12/04 10:09:59;;;;;;;53.07;29.43;;;2.70;99.90;;;;;;5035334;28;20441;-83
2022/12/04 10:12:32;;;;;;;54.80;29.93;;;2.80;99.90;;;;;;5035503;28;20487;-81
2022/12/04 10:15:07;;;;;;;51.53;29.67;;;2.60;99.90;;;;;;5035645;28;20463;-79
2022/12/04 10:17:59;;;;;;;56.50;30.70;;;2.60;99.90;;;;;;5035281;28;20448;-82
2022/12/04 10:20:42;;;;;;;51.43;29.20;;;2.70;99.90;;;;;;5025308;28;20443;-81
2022/12/04 10:23:24;;;;;;;52.17;29.53;;;2.60;99.90;;;;;;5035559;28;20448;-82
2022/12/04 10:25:53;;;;;;;55.17;30.20;;;2.90;99.90;;;;;;5034098;28;20444;-84
2022/12/04 10:28:27;;;;;;;50.13;28.43;;;2.80;99.90;;;;;;5023297;28;20447;-79
2022/12/04 10:30:57;;;;;;;52.17;29.60;;;2.90;99.90;;;;;;5034956;28;20445;-81
2022/12/04 10:33:32;;;;;;;53.20;29.43;;;2.80;99.90;;;;;;5035433;28;20503;-84
2022/12/04 10:35:59;;;;;;;48.10;26.90;;;2.90;99.90;;;;;;5035169;28;20459;-83
2022/12/04 10:38:37;;;;;;;46.50;27.40;;;3.00;99.90;;;;;;5034999;28;20448;-81
2022/12/04 10:41:10;;;;;;;47.00;26.90;;;3.00;99.90;;;;;;5034584;28;20451;-83
2022/12/04 10:43:42;;;;;;;43.10;25.57;;;3.10;99.90;;;;;;5034431;28;20441;-84
2022/12/04 10:46:13;;;;;;;39.10;22.97;;;3.10;99.90;;;;;;5035219;28;20498;-82
2022/12/04 10:48:41;;;;;;;39.93;23.37;;;3.10;99.90;;;;;;5014464;28;20465;-82
2022/12/04 10:51:14;;;;;;;37.90;22.07;;;3.10;99.90;;;;;;5021880;28;20452;-81
2022/12/04 10:53:44;;;;;;;36.33;21.40;;;3.00;99.90;;;;;;5020570;28;20496;-79
2022/12/04 10:56:12;;;;;;;36.13;22.20;;;3.00;99.90;;;;;;5029993;28;20455;-80
2022/12/04 10:58:39;;;;;;;36.60;22.30;;;2.90;99.90;;;;;;5033981;28;20452;-79
2022/12/04 11:01:09;;;;;;;34.37;19.73;;;3.20;99.90;;;;;;5033779;28;20444;-83
2022/12/04 11:03:36;;;;;;;32.87;19.40;;;3.30;99.90;;;;;;5034319;28;20465;-82
2022/12/04 11:06:05;;;;;;;33.07;19.40;;;3.30;99.90;;;;;;5034544;28;20456;-83
2022/12/04 11:08:36;;;;;;;32.20;19.80;;;3.30;99.90;;;;;;5034559;28;20449;-79
2022/12/04 11:11:06;;;;;;;35.63;21.23;;;3.40;99.90;;;;;;5033837;28;20453;-76
2022/12/04 11:13:33;;;;;;;33.50;20.17;;;3.30;99.90;;;;;;5020366;28;20497;-78
2022/12/04 11:16:01;;;;;;;37.17;20.73;;;3.30;99.90;;;;;;5028811;28;20811;-78
2022/12/04 11:18:30;;;;;;;34.67;20.60;;;3.30;99.90;;;;;;5034519;28;20449;-83
2022/12/04 11:21:00;;;;;;;29.77;19.27;;;3.30;99.90;;;;;;5035455;28;20456;-86
2022/12/04 11:23:30;;;;;;;30.90;18.70;;;3.30;99.90;;;;;;5029007;28;20448;-87
2022/12/04 11:25:59;;;;;;;32.20;20.10;;;3.20;99.90;;;;;;5026474;28;20816;-80
2022/12/04 11:28:30;;;;;;;27.87;17.00;;;3.20;99.90;;;;;;5032018;28;20904;-83
2022/12/04 11:30:59;;;;;;;24.93;14.93;;;3.10;99.90;;;;;;5029036;28;20441;-79
2022/12/04 11:33:33;;;;;;;28.77;18.07;;;3.10;99.90;;;;;;5014405;28;20503;-84
2022/12/04 11:36:03;;;;;;;29.43;17.90;;;3.10;99.90;;;;;;5031812;28;20460;-81
2022/12/04 11:38:34;;;;;;;31.93;19.20;;;3.20;99.90;;;;;;5022933;28;20445;-86
2022/12/04 11:41:03;;;;;;;31.30;18.97;;;3.40;99.90;;;;;;5031580;28;20868;-84
2022/12/04 11:43:32;;;;;;;30.57;18.77;;;3.10;99.90;;;;;;5033932;28;20448;-85
2022/12/04 11:46:01;;;;;;;31.10;18.53;;;3.10;99.90;;;;;;5034081;28;20943;-86
2022/12/04 11:48:30;;;;;;;33.07;19.10;;;3.20;99.90;;;;;;5033971;28;20453;-83
2022/12/04 11:51:07;;;;;;;31.37;19.67;;;3.30;99.90;;;;;;5034130;28;20440;-85
2022/12/04 11:53:43;;;;;;;30.90;19.40;;;3.30;99.90;;;;;;5029665;28;20853;-84
2022/12/04 11:56:32;;;;;;;29.50;18.40;;;3.60;99.90;;;;;;5023004;28;20468;-84
2022/12/04 11:59:26;;;;;;;30.10;19.50;;;3.50;99.90;;;;;;5029842;28;20456;-84
2022/12/04 12:02:02;;;;;;;31.13;18.80;;;3.70;99.90;;;;;;5014890;28;20507;-85
2022/12/04 12:05:02;;;;;;;32.40;20.33;;;3.70;99.90;;;;;;5034362;28;20810;-84
2022/12/04 12:07:39;;;;;;;35.33;20.43;;;3.40;99.90;;;;;;5033881;28;20510;-85
2022/12/04 12:10:15;;;;;;;35.97;20.53;;;3.40;99.90;;;;;;5033282;28;20452;-84
2022/12/04 12:12:53;;;;;;;32.97;20.03;;;3.20;99.90;;;;;;5032791;28;20503;-85
2022/12/04 12:15:30;;;;;;;35.23;21.03;;;3.30;99.90;;;;;;5033359;28;20437;-85
2022/12/04 12:18:12;;;;;;;34.53;20.90;;;3.30;99.90;;;;;;5018289;28;20453;-84
2022/12/04 12:20:45;;;;;;;37.40;21.87;;;3.10;99.90;;;;;;5020126;28;20540;-83
2022/12/04 12:23:40;;;;;;;40.20;22.67;;;3.00;99.90;;;;;;5026731;28;20452;-85
2022/12/04 12:26:12;;;;;;;34.93;20.97;;;3.10;99.90;;;;;;5022908;28;20448;-85
2022/12/04 12:29:05;;;;;;;39.40;22.07;;;3.10;99.90;;;;;;5021814;28;20447;-85
2022/12/04 12:31:53;;;;;;;39.20;21.37;;;3.00;99.90;;;;;;5018583;28;20448;-86
2022/12/04 12:34:29;;;;;;;34.97;21.53;;;2.90;99.90;;;;;;5031511;28;20507;-84
2022/12/04 12:36:57;;;;;;;31.27;19.03;;;3.00;99.90;;;;;;5028084;28;20444;-85
2022/12/04 12:39:29;;;;;;;32.80;19.97;;;3.30;99.90;;;;;;5030991;28;20454;-86
2022/12/04 12:42:00;;;;;;;34.37;19.00;;;3.20;99.90;;;;;;5027171;28;20446;-86
2022/12/04 12:44:34;;;;;;;30.00;18.20;;;3.20;99.90;;;;;;5023172;28;20445;-85
2022/12/04 12:47:07;;;;;;;29.80;17.20;;;3.10;99.90;;;;;;5033066;28;21253;-84
2022/12/04 12:49:41;;;;;;;26.00;17.00;;;3.30;99.90;;;;;;5032544;28;20467;-85
2022/12/04 12:52:17;;;;;;;28.43;17.13;;;3.40;99.90;;;;;;5031915;28;20443;-82
2022/12/04 12:54:49;;;;;;;25.93;17.13;;;3.30;99.90;;;;;;5019251;28;20499;-81
2022/12/04 12:57:19;;;;;;;27.53;16.23;;;3.20;99.90;;;;;;5031247;28;20455;-83
2022/12/04 12:59:50;;;;;;;29.52;22.40;;;3.20;99.90;;;;;;5017777;28;20439;-81
2022/12/04 13:02:25;;;;;;;26.23;17.70;;;3.20;99.90;;;;;;5014137;28;20238;-81
2022/12/04 13:04:55;;;;;;;25.50;16.33;;;3.30;99.90;;;;;;5018308;28;20450;-78